sensor_id;sensor_type;location;lat;lon;timestamp;pressure;altitude;pressure_sealevel;temperature;humidity
39491;BME280;25175;50.140;18.990;2023-12-20T00:02:18;97945.47;;;8.06;36.22
39491;BME280;25175;50.140;18.990;2023-12-20T00:05:24;97952.28;;;8.07;36.20
39491;BME280;25175;50.140;18.990;2023-12-20T00:08:31;97945.84;;;8.03;36.00
39491;BME280;25175;50.140;18.990;2023-12-20T00:11:36;97923.75;;;8.05;36.24
39491;BME280;25175;50.140;18.990;2023-12-20T00:14:43;97910.88;;;8.04;36.07
39491;BME280;25175;50.140;18.990;2023-12-20T00:17:48;97919.53;;;7.98;35.58
39491;BME280;25175;50.140;18.990;2023-12-20T00:20:53;97905.88;;;7.96;35.63
39491;BME280;25175;50.140;18.990;2023-12-20T00:24:00;97908.31;;;7.97;35.48
39491;BME280;25175;50.140;18.990;2023-12-20T00:27:05;97918.94;;;7.96;35.27
39491;BME280;25175;50.140;18.990;2023-12-20T00:30:11;97913.53;;;7.97;35.16
39491;BME280;25175;50.140;18.990;2023-12-20T00:33:16;97911.50;;;7.93;35.20
39491;BME280;25175;50.140;18.990;2023-12-20T00:36:21;97913.72;;;7.96;35.15
39491;BME280;25175;50.140;18.990;2023-12-20T00:39:28;97925.38;;;7.93;34.97
39491;BME280;25175;50.140;18.990;2023-12-20T00:42:34;97912.13;;;7.95;34.94
39491;BME280;25175;50.140;18.990;2023-12-20T00:45:39;97906.91;;;7.95;35.02
39491;BME280;25175;50.140;18.990;2023-12-20T00:48:44;97903.06;;;7.97;35.10
39491;BME280;25175;50.140;18.990;2023-12-20T00:51:49;97911.13;;;7.96;35.05
39491;BME280;25175;50.140;18.990;2023-12-20T00:54:57;97880.22;;;7.80;35.10
39491;BME280;25175;50.140;18.990;2023-12-20T00:58:02;97887.59;;;7.96;35.14
39491;BME280;25175;50.140;18.990;2023-12-20T01:01:07;97894.44;;;7.97;35.34
39491;BME280;25175;50.140;18.990;2023-12-20T01:04:12;97898.06;;;7.96;35.44
39491;BME280;25175;50.140;18.990;2023-12-20T01:07:17;97871.13;;;7.95;35.24
39491;BME280;25175;50.140;18.990;2023-12-20T01:10:24;97873.56;;;7.90;35.06
39491;BME280;25175;50.140;18.990;2023-12-20T01:13:31;97835.41;;;7.83;35.37
39491;BME280;25175;50.140;18.990;2023-12-20T01:16:35;97859.50;;;7.85;35.32
39491;BME280;25175;50.140;18.990;2023-12-20T01:19:41;97837.22;;;7.82;35.25
39491;BME280;25175;50.140;18.990;2023-12-20T01:22:45;97742.59;;;7.23;35.13
39491;BME280;25175;50.140;18.990;2023-12-20T01:25:53;97827.41;;;7.71;35.25
39491;BME280;25175;50.140;18.990;2023-12-20T01:28:57;97808.94;;;7.73;35.33
39491;BME280;25175;50.140;18.990;2023-12-20T01:32:03;97802.75;;;7.61;35.12
39491;BME280;25175;50.140;18.990;2023-12-20T01:35:08;97810.97;;;7.64;35.31
39491;BME280;25175;50.140;18.990;2023-12-20T01:38:14;97776.63;;;7.61;35.50
39491;BME280;25175;50.140;18.990;2023-12-20T01:41:22;97813.38;;;7.66;35.25
39491;BME280;25175;50.140;18.990;2023-12-20T01:44:27;97821.78;;;7.68;35.35
39491;BME280;25175;50.140;18.990;2023-12-20T01:47:32;97812.94;;;7.69;35.35
39491;BME280;25175;50.140;18.990;2023-12-20T01:50:38;97813.53;;;7.71;35.35
39491;BME280;25175;50.140;18.990;2023-12-20T01:53:44;97827.19;;;7.73;35.14
39491;BME280;25175;50.140;18.990;2023-12-20T01:56:54;97807.72;;;7.69;35.28
39491;BME280;25175;50.140;18.990;2023-12-20T01:59:59;97807.91;;;7.67;35.28
39491;BME280;25175;50.140;18.990;2023-12-20T02:03:07;97800.91;;;7.68;35.50
39491;BME280;25175;50.140;18.990;2023-12-20T02:06:12;97780.84;;;7.62;35.36
39491;BME280;25175;50.140;18.990;2023-12-20T02:09:18;97801.88;;;7.73;35.39
39491;BME280;25175;50.140;18.990;2023-12-20T02:12:25;97807.91;;;7.74;35.52
39491;BME280;25175;50.140;18.990;2023-12-20T02:15:30;97806.69;;;7.76;35.47
39491;BME280;25175;50.140;18.990;2023-12-20T02:18:36;97811.34;;;7.74;35.46
39491;BME280;25175;50.140;18.990;2023-12-20T02:21:43;97787.03;;;7.74;35.56
39491;BME280;25175;50.140;18.990;2023-12-20T02:24:48;97804.28;;;7.75;35.65
39491;BME280;25175;50.140;18.990;2023-12-20T02:27:52;97812.72;;;7.77;35.72
39491;BME280;25175;50.140;18.990;2023-12-20T02:30:57;97796.84;;;7.78;35.80
39491;BME280;25175;50.140;18.990;2023-12-20T02:34:01;97817.53;;;7.80;36.08
39491;BME280;25175;50.140;18.990;2023-12-20T02:37:09;97814.91;;;7.80;36.15
39491;BME280;25175;50.140;18.990;2023-12-20T02:40:13;97802.50;;;7.69;36.12
39491;BME280;25175;50.140;18.990;2023-12-20T02:43:18;97802.69;;;7.74;36.29
39491;BME280;25175;50.140;18.990;2023-12-20T02:46:23;97792.88;;;7.69;36.02
39491;BME280;25175;50.140;18.990;2023-12-20T02:49:28;97798.28;;;7.68;36.52
39491;BME280;25175;50.140;18.990;2023-12-20T02:52:35;97807.34;;;7.65;37.62
39491;BME280;25175;50.140;18.990;2023-12-20T02:55:40;97786.06;;;7.62;38.03
39491;BME280;25175;50.140;18.990;2023-12-20T02:58:45;97777.84;;;7.58;38.33
39491;BME280;25175;50.140;18.990;2023-12-20T03:01:50;97786.69;;;7.57;38.42
39491;BME280;25175;50.140;18.990;2023-12-20T03:04:54;97792.94;;;7.50;38.85
39491;BME280;25175;50.140;18.990;2023-12-20T03:08:05;97790.94;;;7.39;39.68
39491;BME280;25175;50.140;18.990;2023-12-20T03:11:10;97767.47;;;7.32;40.36
39491;BME280;25175;50.140;18.990;2023-12-20T03:22:09;97807.00;;;7.10;46.38
39491;BME280;25175;50.140;18.990;2023-12-20T03:40:59;97803.75;;;6.30;51.82
39491;BME280;25175;50.140;18.990;2023-12-20T03:44:22;97809.69;;;6.11;52.47
39491;BME280;25175;50.140;18.990;2023-12-20T03:51:41;97807.25;;;5.90;54.10
39491;BME280;25175;50.140;18.990;2023-12-20T03:55:20;97816.22;;;5.81;55.46
